Time;durP1;ratioP1;P1;durP2;ratioP2;P2;SDS_P1;SDS_P2;PMS_P1;PMS_P2;Temp;Humidity;BMP_temperature;BMP_pressure;BME280_temperature;BME280_humidity;BME280_pressure;Samples;Min_cycle;Max_cycle;Signal;HPM_P1;HPM_P2
2023/09/23 00:00:55;;;;;;;;;;;20.30;75.10;;;;;;5093459;28;20368;-68
2023/09/23 00:03:23;;;;;;;;;;;20.30;75.00;;;;;;5091256;28;19998;-68
2023/09/23 00:05:48;;;;;;;;;;;20.30;74.40;;;;;;5091829;28;19920;-68
2023/09/23 00:08:14;;;;;;;;;;;20.30;74.40;;;;;;5094766;28;19926;-68
2023/09/23 00:10:39;;;;;;;;;;;20.30;74.40;;;;;;5092451;28;19924;-68
2023/09/23 00:13:05;;;;;;;;;;;20.30;74.50;;;;;;5102712;28;19919;-68
2023/09/23 00:15:34;;;;;;;;;;;20.30;74.40;;;;;;5114013;28;19920;-68
2023/09/23 00:17:59;;;;;;;;;;;20.30;74.40;;;;;;5112109;28;19965;-68
2023/09/23 00:20:27;;;;;;;;;;;20.30;74.40;;;;;;5113767;28;19958;-68
2023/09/23 00:22:52;;;;;;;;;;;20.30;74.50;;;;;;5113468;28;19927;-68
2023/09/23 00:25:18;;;;;;;;;;;20.20;74.40;;;;;;5104663;28;19920;-68
2023/09/23 00:27:45;;;;;;;;;;;20.20;74.40;;;;;;5093223;28;20015;-68
2023/09/23 00:30:12;;;;;;;;;;;20.30;74.40;;;;;;5093485;28;19927;-68
2023/09/23 00:32:39;;;;;;;;;;;20.20;74.40;;;;;;5092191;28;19919;-68
2023/09/23 00:35:05;;;;;;;;;;;20.20;74.40;;;;;;5092154;28;19920;-68
2023/09/23 00:37:30;;;;;;;;;;;20.20;74.40;;;;;;5093222;28;20359;-68
2023/09/23 00:39:56;;;;;;;;;;;20.20;74.40;;;;;;5097495;28;19988;-68
2023/09/23 00:42:22;;;;;;;;;;;20.20;74.40;;;;;;5113330;28;19926;-68
2023/09/23 00:44:47;;;;;;;;;;;20.20;74.40;;;;;;5113285;28;19920;-68
2023/09/23 00:47:13;;;;;;;;;;;20.20;74.40;;;;;;5111632;28;19926;-68
2023/09/23 00:49:40;;;;;;;;;;;20.20;74.60;;;;;;5094758;28;20262;-68
2023/09/23 00:52:06;;;;;;;;;;;20.20;74.40;;;;;;5112464;28;19972;-68
2023/09/23 00:54:35;;;;;;;;;;;20.20;74.30;;;;;;5112744;28;19920;-68
2023/09/23 00:57:02;;;;;;;;;;;20.20;74.40;;;;;;5113356;28;20426;-68
2023/09/23 00:59:27;;;;;;;;;;;20.20;74.40;;;;;;5115548;28;19930;-68
2023/09/23 01:01:56;;;;;;;;;;;20.20;74.40;;;;;;5114484;28;20379;-68
2023/09/23 01:04:22;;;;;;;;;;;20.20;74.30;;;;;;5095763;28;19943;-68
2023/09/23 01:06:48;;;;;;;;;;;20.20;74.30;;;;;;5094895;28;20279;-68
2023/09/23 01:09:19;;;;;;;;;;;20.20;74.30;;;;;;5096863;28;19981;-68
2023/09/23 01:11:45;;;;;;;;;;;20.20;74.30;;;;;;5096562;28;20362;-68
2023/09/23 01:14:11;;;;;;;;;;;20.10;74.30;;;;;;5094741;28;19973;-68
2023/09/23 01:16:37;;;;;;;;;;;20.20;74.30;;;;;;5095460;28;19920;-68
2023/09/23 01:19:03;;;;;;;;;;;20.20;74.30;;;;;;5095622;28;19920;-68
2023/09/23 01:21:28;;;;;;;;;;;20.20;74.30;;;;;;5095808;28;19927;-68
2023/09/23 01:23:54;;;;;;;;;;;20.10;74.30;;;;;;5096256;28;19928;-68
2023/09/23 01:26:19;;;;;;;;;;;20.10;74.30;;;;;;5096669;28;20014;-68
2023/09/23 01:28:48;;;;;;;;;;;20.10;74.30;;;;;;5094555;28;19920;-68
2023/09/23 01:31:13;;;;;;;;;;;20.10;74.30;;;;;;5095418;28;19924;-68
2023/09/23 01:33:39;;;;;;;;;;;20.10;74.30;;;;;;5094821;28;19924;-68
2023/09/23 01:36:04;;;;;;;;;;;20.10;74.30;;;;;;5095745;28;19926;-69
2023/09/23 01:38:30;;;;;;;;;;;20.10;74.30;;;;;;5111796;28;19931;-68
2023/09/23 01:40:55;;;;;;;;;;;20.10;74.20;;;;;;5094762;28;19920;-68
2023/09/23 01:43:21;;;;;;;;;;;20.10;74.30;;;;;;5094636;28;20034;-68
2023/09/23 01:45:47;;;;;;;;;;;20.10;74.30;;;;;;5095859;28;19920;-68
2023/09/23 01:48:12;;;;;;;;;;;20.10;74.30;;;;;;5095189;28;19973;-68
2023/09/23 01:50:38;;;;;;;;;;;20.10;74.90;;;;;;5093527;28;19920;-68
2023/09/23 01:53:04;;;;;;;;;;;20.10;74.20;;;;;;5095991;28;20497;-68
2023/09/23 01:55:29;;;;;;;;;;;20.10;74.20;;;;;;5094345;28;20303;-68
2023/09/23 01:57:55;;;;;;;;;;;20.10;74.20;;;;;;5095651;28;19920;-68
2023/09/23 02:00:26;;;;;;;;;;;20.10;74.30;;;;;;5095232;28;20002;-68
2023/09/23 02:02:53;;;;;;;;;;;20.10;74.30;;;;;;5094543;28;19927;-68
2023/09/23 02:05:24;;;;;;;;;;;20.10;74.30;;;;;;5110935;28;19927;-68
2023/09/23 02:07:50;;;;;;;;;;;20.10;74.30;;;;;;5094206;28;19919;-68
2023/09/23 02:10:16;;;;;;;;;;;20.10;74.20;;;;;;5094849;28;19927;-68
2023/09/23 02:12:42;;;;;;;;;;;20.10;74.20;;;;;;5094075;28;20341;-68
2023/09/23 02:15:08;;;;;;;;;;;20.10;74.20;;;;;;5094429;28;19920;-68
2023/09/23 02:17:36;;;;;;;;;;;20.00;74.20;;;;;;5093417;28;20011;-68
2023/09/23 02:20:03;;;;;;;;;;;20.00;74.20;;;;;;5095344;28;19927;-68
2023/09/23 02:22:30;;;;;;;;;;;20.00;74.20;;;;;;5094258;28;19920;-68
2023/09/23 02:24:56;;;;;;;;;;;20.00;74.20;;;;;;5093200;28;20060;-68
2023/09/23 02:27:21;;;;;;;;;;;20.00;74.20;;;;;;5095454;28;20010;-68
2023/09/23 02:29:49;;;;;;;;;;;20.00;74.20;;;;;;5094745;28;19927;-68
2023/09/23 02:32:15;;;;;;;;;;;20.00;74.20;;;;;;5093645;28;19927;-68
2023/09/23 02:34:40;;;;;;;;;;;20.00;74.20;;;;;;5093469;28;20306;-68
2023/09/23 02:37:06;;;;;;;;;;;20.00;74.10;;;;;;5093785;28;19982;-68
2023/09/23 02:39:31;;;;;;;;;;;20.00;74.20;;;;;;5093187;28;19962;-68
2023/09/23 02:41:57;;;;;;;;;;;20.00;74.20;;;;;;5094617;28;19927;-68
2023/09/23 02:44:24;;;;;;;;;;;20.00;74.20;;;;;;5094916;28;19965;-68
2023/09/23 02:46:53;;;;;;;;;;;20.00;74.10;;;;;;5093983;28;19946;-68
2023/09/23 02:49:19;;;;;;;;;;;20.00;74.20;;;;;;5094659;28;19997;-68
2023/09/23 02:51:45;;;;;;;;;;;20.00;74.20;;;;;;5092783;28;19919;-68
2023/09/23 02:54:13;;;;;;;;;;;20.00;74.20;;;;;;5094765;28;20012;-68
2023/09/23 02:56:39;;;;;;;;;;;20.00;74.20;;;;;;5093528;28;19955;-68
2023/09/23 02:59:11;;;;;;;;;;;20.00;74.10;;;;;;5093038;28;19970;-68
2023/09/23 03:01:45;;;;;;;;;;;20.00;74.20;;;;;;5093093;28;19920;-68
2023/09/23 03:04:16;;;;;;;;;;;20.00;74.20;;;;;;5093653;28;20319;-68
2023/09/23 03:06:49;;;;;;;;;;;20.00;74.20;;;;;;5092122;28;20341;-68
2023/09/23 03:09:19;;;;;;;;;;;20.00;74.20;;;;;;5094733;28;19920;-68
2023/09/23 03:11:55;;;;;;;;;;;20.00;74.20;;;;;;5092978;28;20299;-68
2023/09/23 03:14:45;;;;;;;;;;;20.00;74.20;;;;;;5093546;28;20359;-68
2023/09/23 03:17:12;;;;;;;;;;;20.00;74.20;;;;;;5093254;28;19958;-67
2023/09/23 03:19:38;;;;;;;;;;;19.90;74.10;;;;;;5094188;28;19965;-68
2023/09/23 03:22:03;;;;;;;;;;;19.90;74.10;;;;;;5092788;28;19924;-68
2023/09/23 03:24:29;;;;;;;;;;;20.00;74.20;;;;;;5093959;28;20384;-68
2023/09/23 03:26:56;;;;;;;;;;;20.00;74.20;;;;;;5091990;28;19985;-68
2023/09/23 03:29:28;;;;;;;;;;;19.90;74.20;;;;;;5094383;28;19923;-68
2023/09/23 03:31:54;;;;;;;;;;;19.90;74.10;;;;;;5092617;28;20417;-68
2023/09/23 03:34:21;;;;;;;;;;;19.90;74.10;;;;;;5093138;28;19919;-68
2023/09/23 03:36:47;;;;;;;;;;;19.90;74.20;;;;;;5094385;28;19920;-68
2023/09/23 03:39:12;;;;;;;;;;;19.90;74.20;;;;;;5092517;28;19924;-68
2023/09/23 03:41:38;;;;;;;;;;;19.90;74.10;;;;;;5091896;28;19920;-68
2023/09/23 03:44:04;;;;;;;;;;;19.90;74.10;;;;;;5094138;28;19920;-68
2023/09/23 03:46:29;;;;;;;;;;;19.90;74.10;;;;;;5094068;28;19998;-68
2023/09/23 03:48:55;;;;;;;;;;;19.90;74.10;;;;;;5092676;28;19923;-68
2023/09/23 03:51:20;;;;;;;;;;;19.90;74.10;;;;;;5092858;28;19923;-68
2023/09/23 03:53:48;;;;;;;;;;;19.90;74.10;;;;;;5092086;28;19923;-68
2023/09/23 03:56:13;;;;;;;;;;;19.90;74.10;;;;;;5093117;28;19924;-68
2023/09/23 03:58:39;;;;;;;;;;;19.90;74.20;;;;;;5093902;28;19924;-69
2023/09/23 04:01:08;;;;;;;;;;;19.90;74.10;;;;;;5079566;28;19920;-68
2023/09/23 04:03:34;;;;;;;;;;;19.90;74.10;;;;;;5091777;28;20290;-68
2023/09/23 04:06:00;;;;;;;;;;;19.90;74.20;;;;;;5091413;28;20386;-68
2023/09/23 04:08:25;;;;;;;;;;;19.90;74.10;;;;;;5093186;28;20007;-68
2023/09/23 04:10:51;;;;;;;;;;;19.90;74.20;;;;;;5092246;28;19973;-68
2023/09/23 04:13:16;;;;;;;;;;;19.90;74.10;;;;;;5092154;28;20375;-68
2023/09/23 04:15:42;;;;;;;;;;;19.90;74.10;;;;;;5093308;28;19927;-68
2023/09/23 04:18:09;;;;;;;;;;;19.90;74.10;;;;;;5092355;28;20045;-68
2023/09/23 04:20:35;;;;;;;;;;;19.90;74.10;;;;;;5092022;28;19920;-68
2023/09/23 04:23:01;;;;;;;;;;;19.90;74.20;;;;;;5091877;28;20016;-68
2023/09/23 04:25:26;;;;;;;;;;;19.90;74.20;;;;;;5091173;28;19969;-68
2023/09/23 04:27:53;;;;;;;;;;;19.90;74.30;;;;;;5091688;28;19972;-68
2023/09/23 04:30:18;;;;;;;;;;;19.90;74.30;;;;;;5092707;28;20008;-68
2023/09/23 04:32:44;;;;;;;;;;;19.90;74.20;;;;;;5092603;28;19974;-68
2023/09/23 04:35:11;;;;;;;;;;;19.90;74.30;;;;;;5092959;28;20328;-68
2023/09/23 04:37:37;;;;;;;;;;;19.90;74.20;;;;;;5092166;28;19930;-68
2023/09/23 04:40:09;;;;;;;;;;;19.90;74.20;;;;;;5093195;28;20006;-68
2023/09/23 04:42:35;;;;;;;;;;;19.90;74.30;;;;;;5093102;28;20356;-68
2023/09/23 04:45:01;;;;;;;;;;;19.90;74.20;;;;;;5092475;28;19924;-68
2023/09/23 04:47:27;;;;;;;;;;;20.00;74.30;;;;;;5093378;28;19927;-68
2023/09/23 04:49:54;;;;;;;;;;;20.00;74.20;;;;;;5092611;28;20265;-68
2023/09/23 04:52:20;;;;;;;;;;;20.00;74.20;;;;;;5091012;28;19931;-68
2023/09/23 04:54:46;;;;;;;;;;;20.00;74.20;;;;;;5092824;28;19920;-68
2023/09/23 04:57:13;;;;;;;;;;;20.00;74.20;;;;;;5091728;28;19920;-68
2023/09/23 04:59:39;;;;;;;;;;;20.00;74.20;;;;;;5091109;28;19943;-68
2023/09/23 05:02:04;;;;;;;;;;;20.00;74.20;;;;;;5091656;28;20375;-68
2023/09/23 05:04:30;;;;;;;;;;;20.00;74.20;;;;;;5091494;28;19979;-68
2023/09/23 05:06:56;;;;;;;;;;;20.00;74.20;;;;;;5092255;28;19920;-68
2023/09/23 05:09:23;;;;;;;;;;;20.10;74.30;;;;;;5092908;28;20320;-68
2023/09/23 05:11:51;;;;;;;;;;;20.10;74.20;;;;;;5092460;28;19920;-68
2023/09/23 05:14:17;;;;;;;;;;;20.10;74.20;;;;;;5091270;28;19965;-68
2023/09/23 05:16:42;;;;;;;;;;;20.10;74.20;;;;;;5092548;28;19920;-68
2023/09/23 05:19:09;;;;;;;;;;;20.10;74.20;;;;;;5092600;28;19919;-68
2023/09/23 05:21:35;;;;;;;;;;;20.10;74.30;;;;;;5091959;28;19927;-68
2023/09/23 05:24:01;;;;;;;;;;;20.10;74.30;;;;;;5091846;28;20012;-68
2023/09/23 05:26:27;;;;;;;;;;;20.10;74.20;;;;;;5092163;28;20001;-68
2023/09/23 05:28:52;;;;;;;;;;;20.10;74.20;;;;;;5091198;28;19916;-68
2023/09/23 05:31:18;;;;;;;;;;;20.10;74.20;;;;;;5092567;28;19920;-69
2023/09/23 05:33:43;;;;;;;;;;;20.10;74.20;;;;;;5091506;28;20386;-69
2023/09/23 05:36:10;;;;;;;;;;;20.10;74.20;;;;;;5092787;28;19916;-68
2023/09/23 05:38:36;;;;;;;;;;;20.10;74.10;;;;;;5090884;28;19920;-68
2023/09/23 05:41:02;;;;;;;;;;;20.10;74.10;;;;;;5092024;28;19920;-68
2023/09/23 05:43:28;;;;;;;;;;;20.10;74.10;;;;;;5092565;28;19966;-68
2023/09/23 05:45:53;;;;;;;;;;;20.10;74.10;;;;;;5095432;28;19928;-68
2023/09/23 05:48:20;;;;;;;;;;;20.10;74.10;;;;;;5094378;28;20287;-68
2023/09/23 05:50:45;;;;;;;;;;;20.10;74.10;;;;;;5094777;28;19944;-68
2023/09/23 05:53:11;;;;;;;;;;;20.10;74.00;;;;;;5096338;28;20371;-68
2023/09/23 05:55:36;;;;;;;;;;;20.10;74.00;;;;;;5095128;28;19916;-68
2023/09/23 05:58:02;;;;;;;;;;;20.10;74.60;;;;;;5096284;28;20336;-65
2023/09/23 06:00:27;;;;;;;;;;;20.10;74.00;;;;;;5094653;28;19923;-67
2023/09/23 06:02:53;;;;;;;;;;;20.10;74.00;;;;;;5094651;28;19984;-66
2023/09/23 06:05:20;;;;;;;;;;;20.10;74.00;;;;;;5096071;28;19927;-66
2023/09/23 06:07:45;;;;;;;;;;;20.10;74.00;;;;;;5095376;28;19927;-66
2023/09/23 06:10:11;;;;;;;;;;;20.10;74.00;;;;;;5098706;28;20286;-65
2023/09/23 06:12:36;;;;;;;;;;;20.10;74.00;;;;;;5106259;28;20426;-65
2023/09/23 06:15:03;;;;;;;;;;;20.10;74.10;;;;;;5114719;28;19920;-66
2023/09/23 06:17:28;;;;;;;;;;;20.10;74.20;;;;;;5131412;27;20264;-66
2023/09/23 06:19:57;;;;;;;;;;;20.10;74.20;;;;;;5100284;28;19973;-66
2023/09/23 06:22:23;;;;;;;;;;;20.10;74.30;;;;;;5095299;28;20276;-65
2023/09/23 06:24:51;;;;;;;;;;;20.10;74.20;;;;;;5093593;28;20417;-65
2023/09/23 06:27:17;;;;;;;;;;;20.20;74.30;;;;;;5095735;28;19925;-65
2023/09/23 06:29:43;;;;;;;;;;;20.10;74.20;;;;;;5107114;28;19919;-66
2023/09/23 06:32:08;;;;;;;;;;;20.20;74.30;;;;;;5115349;28;19998;-66
2023/09/23 06:34:34;;;;;;;;;;;20.20;74.30;;;;;;5105877;28;19967;-67
2023/09/23 06:37:00;;;;;;;;;;;20.20;74.30;;;;;;5094242;28;20290;-65
2023/09/23 06:39:25;;;;;;;;;;;20.20;74.30;;;;;;5094836;28;19920;-66
2023/09/23 06:41:51;;;;;;;;;;;20.20;74.30;;;;;;5093589;28;19972;-65
2023/09/23 06:44:16;;;;;;;;;;;20.20;74.20;;;;;;5094557;28;19927;-67
2023/09/23 06:46:42;;;;;;;;;;;20.20;74.20;;;;;;5094632;28;19939;-65
2023/09/23 06:49:08;;;;;;;;;;;20.20;74.20;;;;;;5095029;28;20011;-65
2023/09/23 06:51:33;;;;;;;;;;;20.20;74.20;;;;;;5094122;28;19960;-65
2023/09/23 06:53:58;;;;;;;;;;;20.20;74.30;;;;;;5094141;28;19942;-64
2023/09/23 06:56:24;;;;;;;;;;;20.20;74.20;;;;;;5092791;28;19920;-64
2023/09/23 06:58:50;;;;;;;;;;;20.20;74.20;;;;;;5097295;28;19923;-65
2023/09/23 07:01:16;;;;;;;;;;;20.20;74.30;;;;;;5114880;28;20039;-66
2023/09/23 07:03:42;;;;;;;;;;;20.20;74.30;;;;;;5112496;28;20456;-65
2023/09/23 07:06:08;;;;;;;;;;;20.20;74.30;;;;;;5093729;28;20003;-65
2023/09/23 07:08:33;;;;;;;;;;;20.20;74.30;;;;;;5094340;28;19920;-67
2023/09/23 07:10:59;;;;;;;;;;;20.20;74.30;;;;;;5093961;28;19977;-67
2023/09/23 07:13:24;;;;;;;;;;;20.20;74.30;;;;;;5093902;28;19926;-67
2023/09/23 07:15:50;;;;;;;;;;;20.20;74.30;;;;;;5094690;28;20315;-67
2023/09/23 07:18:15;;;;;;;;;;;20.20;74.00;;;;;;5093501;28;20264;-67
2023/09/23 07:20:42;;;;;;;;;;;20.20;74.00;;;;;;5093075;28;19931;-65
2023/09/23 07:23:08;;;;;;;;;;;20.20;74.00;;;;;;5094830;28;19927;-64
2023/09/23 07:25:40;;;;;;;;;;;20.20;74.10;;;;;;5092528;28;19920;-66
2023/09/23 07:28:06;;;;;;;;;;;20.20;74.20;;;;;;5093788;28;20371;-66
2023/09/23 07:30:32;;;;;;;;;;;20.20;74.10;;;;;;5094015;28;20389;-66
2023/09/23 07:32:59;;;;;;;;;;;20.30;74.10;;;;;;5092865;28;20007;-66
2023/09/23 07:35:25;;;;;;;;;;;20.30;74.10;;;;;;5093344;28;19924;-66
2023/09/23 07:37:50;;;;;;;;;;;20.30;74.00;;;;;;5075372;28;19977;-66
2023/09/23 07:40:16;;;;;;;;;;;20.30;74.10;;;;;;5101752;28;19919;-66
2023/09/23 07:42:41;;;;;;;;;;;20.30;74.10;;;;;;5112965;28;19969;-66
2023/09/23 07:45:08;;;;;;;;;;;20.30;74.20;;;;;;5114333;28;20363;-66
2023/09/23 07:47:34;;;;;;;;;;;20.30;74.10;;;;;;5113478;28;19988;-66
2023/09/23 07:49:59;;;;;;;;;;;20.30;74.10;;;;;;5113177;28;20329;-66
2023/09/23 07:52:25;;;;;;;;;;;20.30;74.10;;;;;;5114196;28;19919;-66
2023/09/23 07:54:51;;;;;;;;;;;20.30;74.10;;;;;;5111851;28;20421;-66
2023/09/23 07:57:16;;;;;;;;;;;20.30;74.10;;;;;;5114338;28;19919;-66
2023/09/23 07:59:42;;;;;;;;;;;20.30;74.10;;;;;;5113643;28;19923;-66
2023/09/23 08:02:08;;;;;;;;;;;20.30;74.00;;;;;;5112144;28;20010;-66
2023/09/23 08:04:33;;;;;;;;;;;20.30;74.00;;;;;;5114026;28;19920;-66
2023/09/23 08:06:59;;;;;;;;;;;20.30;74.10;;;;;;5113925;28;19919;-66
2023/09/23 08:09:24;;;;;;;;;;;20.30;74.00;;;;;;5111883;28;20075;-66
2023/09/23 08:11:50;;;;;;;;;;;20.30;74.00;;;;;;5106003;28;19920;-66
2023/09/23 08:14:15;;;;;;;;;;;20.30;74.00;;;;;;5093324;28;19920;-66
2023/09/23 08:16:41;;;;;;;;;;;20.30;74.00;;;;;;5092382;28;19973;-66
2023/09/23 08:19:06;;;;;;;;;;;20.40;74.00;;;;;;5092065;28;19920;-66
2023/09/23 08:21:32;;;;;;;;;;;20.30;74.00;;;;;;5093299;28;20009;-66
2023/09/23 08:23:57;;;;;;;;;;;20.30;73.90;;;;;;5092427;28;19926;-66
2023/09/23 08:26:24;;;;;;;;;;;20.30;73.90;;;;;;5111475;28;19920;-66
2023/09/23 08:28:50;;;;;;;;;;;20.40;74.00;;;;;;5111887;28;20256;-66
2023/09/23 08:31:16;;;;;;;;;;;20.40;73.90;;;;;;5111902;28;20412;-67
2023/09/23 08:33:41;;;;;;;;;;;20.40;73.90;;;;;;5112516;28;20378;-67
2023/09/23 08:36:07;;;;;;;;;;;20.40;73.90;;;;;;5113713;28;19920;-67
2023/09/23 08:38:32;;;;;;;;;;;20.40;73.80;;;;;;5111686;28;19920;-66
2023/09/23 08:40:58;;;;;;;;;;;20.40;73.90;;;;;;5113278;28;20366;-66
2023/09/23 08:43:27;;;;;;;;;;;20.40;73.80;;;;;;5111413;28;19926;-66
2023/09/23 08:45:53;;;;;;;;;;;20.40;73.80;;;;;;5093479;28;19920;-66
2023/09/23 08:48:18;;;;;;;;;;;20.40;73.90;;;;;;5091948;28;19919;-66
2023/09/23 08:50:44;;;;;;;;;;;20.40;73.90;;;;;;5090794;28;20043;-66
2023/09/23 08:53:09;;;;;;;;;;;20.40;73.90;;;;;;5093297;28;19916;-67
2023/09/23 08:55:35;;;;;;;;;;;20.40;73.90;;;;;;5091542;28;19988;-66
2023/09/23 08:58:04;;;;;;;;;;;20.40;73.90;;;;;;5090923;28;19928;-67
2023/09/23 09:00:30;;;;;;;;;;;20.40;73.80;;;;;;5091742;28;19923;-66
2023/09/23 09:02:56;;;;;;;;;;;20.40;73.90;;;;;;5092606;28;19920;-66
2023/09/23 09:05:22;;;;;;;;;;;20.40;73.90;;;;;;5091213;28;19927;-66
2023/09/23 09:07:47;;;;;;;;;;;20.40;73.80;;;;;;5092962;28;20009;-67
2023/09/23 09:10:14;;;;;;;;;;;20.40;73.80;;;;;;5093091;28;20448;-66
2023/09/23 09:12:39;;;;;;;;;;;20.40;73.80;;;;;;5090663;28;19920;-66
2023/09/23 09:15:05;;;;;;;;;;;20.40;73.80;;;;;;5093102;28;19920;-67
2023/09/23 09:17:32;;;;;;;;;;;20.40;73.80;;;;;;5092026;28;19928;-66
2023/09/23 09:19:59;;;;;;;;;;;20.40;73.80;;;;;;5092058;28;19966;-67
2023/09/23 09:22:25;;;;;;;;;;;20.40;73.80;;;;;;5096530;28;20287;-66
2023/09/23 09:24:50;;;;;;;;;;;20.40;73.80;;;;;;5095034;28;19924;-67
2023/09/23 09:27:16;;;;;;;;;;;20.40;73.80;;;;;;5095871;28;20434;-66
2023/09/23 09:29:42;;;;;;;;;;;20.40;73.80;;;;;;5106272;28;19926;-66
2023/09/23 09:32:11;;;;;;;;;;;20.40;73.80;;;;;;5117210;28;20006;-67
2023/09/23 09:34:44;;;;;;;;;;;20.40;73.80;;;;;;5115926;28;19919;-66
2023/09/23 09:37:10;;;;;;;;;;;20.40;73.80;;;;;;5116650;28;20268;-66
2023/09/23 09:39:36;;;;;;;;;;;20.40;73.80;;;;;;5116721;28;19920;-66
2023/09/23 09:42:02;;;;;;;;;;;20.40;73.80;;;;;;5115238;28;19919;-66
2023/09/23 09:44:28;;;;;;;;;;;20.40;73.80;;;;;;5115390;28;20398;-67
2023/09/23 09:46:54;;;;;;;;;;;20.40;74.40;;;;;;5097426;28;19930;-66
2023/09/23 09:49:21;;;;;;;;;;;20.40;73.80;;;;;;5115756;28;19916;-66
2023/09/23 09:51:48;;;;;;;;;;;20.40;73.80;;;;;;5115319;28;19942;-66
2023/09/23 09:54:14;;;;;;;;;;;20.40;73.80;;;;;;5115626;28;19923;-66
2023/09/23 09:56:40;;;;;;;;;;;20.40;73.80;;;;;;5115082;28;19923;-67
2023/09/23 09:59:06;;;;;;;;;;;20.40;73.80;;;;;;5115505;28;19920;-66
2023/09/23 10:01:32;;;;;;;;;;;20.40;73.80;;;;;;5114350;28;19916;-66
2023/09/23 10:03:59;;;;;;;;;;;20.40;73.80;;;;;;5105231;28;19920;-66
2023/09/23 10:06:26;;;;;;;;;;;20.40;73.80;;;;;;5094772;28;19982;-66
2023/09/23 10:08:52;;;;;;;;;;;20.40;74.30;;;;;;5094828;28;19924;-66
2023/09/23 10:11:18;;;;;;;;;;;20.50;73.70;;;;;;5095966;28;19927;-67
2023/09/23 10:13:44;;;;;;;;;;;20.50;73.70;;;;;;5094138;28;19920;-66
2023/09/23 10:16:14;;;;;;;;;;;20.50;73.70;;;;;;5095196;28;19919;-67
2023/09/23 10:18:41;;;;;;;;;;;20.50;73.70;;;;;;5094184;28;19920;-67
2023/09/23 10:21:07;;;;;;;;;;;20.50;73.70;;;;;;5095378;28;20368;-67
2023/09/23 10:23:36;;;;;;;;;;;20.50;73.60;;;;;;5095007;28;19920;-66
2023/09/23 10:26:11;;;;;;;;;;;20.50;73.60;;;;;;5095723;28;19931;-66
2023/09/23 10:28:37;;;;;;;;;;;20.50;73.60;;;;;;5093892;28;19923;-66
2023/09/23 10:31:06;;;;;;;;;;;20.60;73.60;;;;;;5094512;28;19988;-66
2023/09/23 10:33:34;;;;;;;;;;;20.60;73.60;;;;;;5095314;28;19973;-66
2023/09/23 10:36:00;;;;;;;;;;;20.60;73.60;;;;;;5094530;28;19920;-67
2023/09/23 10:38:30;;;;;;;;;;;20.60;73.60;;;;;;5095233;28;19972;-67
2023/09/23 10:40:56;;;;;;;;;;;20.60;73.60;;;;;;5095248;28;20011;-66
2023/09/23 10:43:21;;;;;;;;;;;20.60;73.60;;;;;;5094333;28;20066;-66
2023/09/23 10:45:57;;;;;;;;;;;20.60;73.60;;;;;;5095004;28;19929;-66
2023/09/23 10:48:22;;;;;;;;;;;20.60;73.60;;;;;;5095013;28;19920;-67
2023/09/23 10:50:50;;;;;;;;;;;20.60;73.50;;;;;;5094113;28;19916;-67
2023/09/23 10:53:15;;;;;;;;;;;20.60;73.50;;;;;;5095158;28;20380;-67
2023/09/23 10:55:41;;;;;;;;;;;20.60;73.50;;;;;;5094880;28;19920;-66
2023/09/23 10:58:09;;;;;;;;;;;20.60;73.50;;;;;;5094041;28;19924;-66
2023/09/23 11:00:36;;;;;;;;;;;20.60;73.60;;;;;;5094562;28;20371;-67
2023/09/23 11:03:11;;;;;;;;;;;20.60;73.60;;;;;;5093382;28;20371;-66
2023/09/23 11:05:37;;;;;;;;;;;20.60;73.60;;;;;;5092424;28;19926;-67
2023/09/23 11:08:07;;;;;;;;;;;20.60;73.60;;;;;;5093424;28;19916;-67
2023/09/23 11:10:34;;;;;;;;;;;20.60;73.60;;;;;;5094650;28;19959;-67
2023/09/23 11:12:59;;;;;;;;;;;20.60;73.60;;;;;;5092640;28;19961;-67
2023/09/23 11:15:25;;;;;;;;;;;20.50;73.50;;;;;;5094704;28;19920;-67
2023/09/23 11:17:53;;;;;;;;;;;20.50;73.50;;;;;;5094182;28;20001;-67
2023/09/23 11:20:25;;;;;;;;;;;20.50;73.50;;;;;;5093744;28;19919;-67
2023/09/23 11:22:51;;;;;;;;;;;20.50;73.50;;;;;;5094236;28;19974;-66
2023/09/23 11:25:17;;;;;;;;;;;20.50;73.60;;;;;;5101392;28;19970;-67
2023/09/23 11:27:44;;;;;;;;;;;20.50;73.60;;;;;;5113215;28;20405;-67
2023/09/23 11:30:10;;;;;;;;;;;20.50;73.60;;;;;;5114669;28;19920;-67
2023/09/23 11:32:36;;;;;;;;;;;20.50;73.60;;;;;;5112362;28;19920;-67
2023/09/23 11:35:02;;;;;;;;;;;20.60;73.70;;;;;;5114373;28;19975;-67
2023/09/23 11:37:28;;;;;;;;;;;20.60;73.70;;;;;;5113116;28;20010;-67
2023/09/23 11:39:53;;;;;;;;;;;20.60;73.60;;;;;;5113430;28;19923;-66
2023/09/23 11:42:20;;;;;;;;;;;20.60;73.60;;;;;;5112395;28;20014;-66
2023/09/23 11:44:46;;;;;;;;;;;20.60;73.50;;;;;;5114288;28;20359;-67
2023/09/23 11:47:11;;;;;;;;;;;20.60;73.40;;;;;;5113791;28;19930;-67
2023/09/23 11:49:37;;;;;;;;;;;20.60;73.40;;;;;;5113947;28;19927;-66
2023/09/23 11:52:04;;;;;;;;;;;20.60;73.40;;;;;;5113264;28;19919;-67
2023/09/23 11:54:30;;;;;;;;;;;20.70;73.40;;;;;;5113554;28;19920;-66
2023/09/23 11:56:55;;;;;;;;;;;20.60;73.30;;;;;;5113836;28;19920;-67
2023/09/23 11:59:23;;;;;;;;;;;20.60;73.30;;;;;;5113095;28;20019;-67
2023/09/23 12:01:49;;;;;;;;;;;20.60;73.20;;;;;;5113257;28;19946;-67
2023/09/23 12:04:14;;;;;;;;;;;20.60;73.20;;;;;;5113016;28;19923;-67
2023/09/23 12:06:40;;;;;;;;;;;20.60;73.20;;;;;;5113771;28;19919;-67
2023/09/23 12:09:09;;;;;;;;;;;20.60;73.80;;;;;;5111936;28;20283;-66
2023/09/23 12:11:35;;;;;;;;;;;20.60;73.30;;;;;;5113786;28;19920;-66
2023/09/23 12:14:01;;;;;;;;;;;20.60;73.30;;;;;;5096111;28;20006;-67
2023/09/23 12:16:26;;;;;;;;;;;20.60;73.30;;;;;;5113211;28;19926;-67
2023/09/23 12:18:52;;;;;;;;;;;20.60;73.30;;;;;;5113689;28;20358;-67
2023/09/23 12:21:17;;;;;;;;;;;20.60;73.30;;;;;;5113613;28;19920;-67
2023/09/23 12:23:43;;;;;;;;;;;20.60;73.30;;;;;;5112691;28;19920;-66
2023/09/23 12:26:09;;;;;;;;;;;20.70;73.30;;;;;;5112476;28;20294;-67
2023/09/23 12:28:38;;;;;;;;;;;20.70;73.20;;;;;;5112514;28;20358;-67
2023/09/23 12:31:03;;;;;;;;;;;20.70;73.20;;;;;;5113757;28;20018;-67
2023/09/23 12:33:29;;;;;;;;;;;20.70;73.20;;;;;;5113983;28;20076;-66
2023/09/23 12:35:54;;;;;;;;;;;20.70;73.20;;;;;;5112539;28;19963;-67
2023/09/23 12:38:20;;;;;;;;;;;20.70;73.20;;;;;;5113544;28;19923;-66
2023/09/23 12:40:46;;;;;;;;;;;20.70;73.10;;;;;;5111890;28;19919;-66
2023/09/23 12:43:11;;;;;;;;;;;20.70;73.10;;;;;;5112986;28;19931;-67
2023/09/23 12:45:40;;;;;;;;;;;20.70;73.00;;;;;;5113407;28;19926;-67
2023/09/23 12:48:09;;;;;;;;;;;20.70;73.00;;;;;;5112634;28;20358;-66
2023/09/23 12:50:35;;;;;;;;;;;20.70;73.00;;;;;;5112514;28;20037;-67
2023/09/23 12:53:00;;;;;;;;;;;20.70;73.00;;;;;;5113739;28;20342;-66
2023/09/23 12:55:26;;;;;;;;;;;20.70;73.00;;;;;;5117768;28;19920;-66
2023/09/23 12:57:55;;;;;;;;;;;20.70;73.00;;;;;;5116866;28;20010;-67
2023/09/23 13:00:20;;;;;;;;;;;20.70;73.00;;;;;;5117862;28;19923;-67
2023/09/23 13:02:46;;;;;;;;;;;20.70;73.00;;;;;;5117213;27;20229;-67
2023/09/23 13:05:15;;;;;;;;;;;20.60;73.00;;;;;;5116905;28;19923;-67
2023/09/23 13:07:44;;;;;;;;;;;20.60;73.10;;;;;;5115946;28;19919;-67
2023/09/23 13:10:11;;;;;;;;;;;20.60;73.10;;;;;;5117385;28;19955;-67
2023/09/23 13:12:40;;;;;;;;;;;20.60;73.10;;;;;;5116569;28;20028;-67
2023/09/23 13:15:06;;;;;;;;;;;20.60;73.10;;;;;;5117479;28;19919;-67
2023/09/23 13:17:31;;;;;;;;;;;20.60;73.10;;;;;;5117276;27;19974;-67
2023/09/23 13:19:57;;;;;;;;;;;20.70;73.30;;;;;;5116010;28;19962;-67
2023/09/23 13:22:22;;;;;;;;;;;20.70;73.20;;;;;;5117347;28;19920;-66
2023/09/23 13:24:49;;;;;;;;;;;20.60;73.10;;;;;;5116051;28;20375;-67
2023/09/23 13:27:15;;;;;;;;;;;20.60;73.10;;;;;;5115921;28;19930;-66
2023/09/23 13:29:40;;;;;;;;;;;20.60;73.10;;;;;;5116899;28;19920;-66
2023/09/23 13:32:06;;;;;;;;;;;20.60;73.20;;;;;;5115294;28;19920;-66
2023/09/23 13:34:31;;;;;;;;;;;20.60;73.10;;;;;;5116712;28;20018;-66
2023/09/23 13:36:57;;;;;;;;;;;20.60;73.10;;;;;;5115289;28;20364;-66
2023/09/23 13:39:22;;;;;;;;;;;20.60;73.20;;;;;;5115864;28;19924;-66
2023/09/23 13:41:48;;;;;;;;;;;20.50;73.20;;;;;;5115305;28;19924;-66
2023/09/23 13:44:13;;;;;;;;;;;20.50;73.20;;;;;;5116597;28;19923;-66
2023/09/23 13:46:39;;;;;;;;;;;20.50;73.30;;;;;;5115913;28;20386;-66
2023/09/23 13:49:05;;;;;;;;;;;20.50;73.80;;;;;;5116696;28;19920;-66
2023/09/23 13:51:31;;;;;;;;;;;20.50;73.20;;;;;;5110293;28;19926;-66
2023/09/23 13:53:56;;;;;;;;;;;20.60;73.30;;;;;;5112483;28;19919;-66
2023/09/23 13:56:22;;;;;;;;;;;20.60;73.40;;;;;;5116742;28;20006;-67
2023/09/23 13:58:47;;;;;;;;;;;20.70;73.40;;;;;;5115215;28;20042;-67
2023/09/23 14:01:13;;;;;;;;;;;20.70;73.20;;;;;;5115916;28;20016;-66
2023/09/23 14:03:38;;;;;;;;;;;20.80;73.20;;;;;;5114869;28;19972;-67
2023/09/23 14:06:04;;;;;;;;;;;20.90;73.10;;;;;;5114185;28;19923;-66
2023/09/23 14:08:31;;;;;;;;;;;21.00;73.00;;;;;;5115655;28;20371;-66
2023/09/23 14:10:56;;;;;;;;;;;21.10;72.80;;;;;;5102071;28;19969;-66